Archival Weather

Fayette Rgnl Air Cntr Arp

Fayette Rgnl Air Cntr Arp, Texas (K3T5)

Report from: Thursday, September 22, 2022 4:55 AM CDT
Current time: Friday, February 3, 2023 11:51 PM CST

Current weather
Weather history
Weather forecast

Temperature21.1°C (70.0°F)
Dew point20.7°C (69.3°F)
Winds Calm
Visibility10 mi. (16.1 km)
Clouds Sky clear
Altimeter29.98 in.Hg (1015 mB)
Relative humidity98 %
Density altitude975 ft. (297 m)
Remarks Fully automated report
Automated weather observing station with precipitation discriminator
Flight conditions Visual Meteorological Conditions
Raw dataK3T5 220955Z AUTO 00000KT 10SM CLR 21/21 A2998 RMK AO2 T02110207
An unhandled exception has occurred. See browser dev tools for details. Reload 🗙